Ocoee 1 Observed Data For Previous 48 Hours

Caption
Day and Hour Reservoir Elevation (behind dam)* Tailwater Elevation (below dam)* Average Hourly Discharge*
11/11/2018 2 AM EST 828.32 714.81 650
11/11/2018 3 AM EST 828.37 714.81 650
11/11/2018 4 AM EST 828.41 714.82 649
11/11/2018 5 AM EST 828.44 714.81 648
11/11/2018 6 AM EST 828.46 714.88 650
11/11/2018 7 AM EST 828.46 716.12 1,339
11/11/2018 8 AM EST 828.41 717.97 2,737
11/11/2018 9 AM EST 828.35 717.98 2,748
11/11/2018 10 AM EST 828.29 717.97 2,740
11/11/2018 11 AM EST 828.23 717.99 2,738
11/11/2018 12 PM EST 828.18 718.00 2,749
11/11/2018 1 PM EST 828.18 716.01 1,341
11/11/2018 2 PM EST 828.18 716.00 1,323
11/11/2018 3 PM EST 828.18 716.00 1,324
11/11/2018 4 PM EST 828.19 716.00 1,324
11/11/2018 5 PM EST 828.18 715.99 1,324
11/11/2018 6 PM EST 828.19 716.08 1,340
11/11/2018 7 PM EST 828.16 717.07 1,998
11/11/2018 8 PM EST 828.10 717.97 2,728
11/11/2018 9 PM EST 828.05 717.98 2,734
11/11/2018 10 PM EST 827.99 717.99 2,741
11/11/2018 11 PM EST 827.93 717.96 2,737
11/12/2018 12 AM EST 827.93 716.02 1,336
11/12/2018 1 AM EST 827.92 716.01 1,329
11/12/2018 2 AM EST 827.92 716.01 1,329
11/12/2018 3 AM EST 827.92 716.01 1,329
11/12/2018 4 AM EST 827.93 716.01 1,326
11/12/2018 5 AM EST 827.94 716.00 1,327
11/12/2018 6 AM EST 827.93 717.91 2,410
11/12/2018 7 AM EST 827.87 717.97 2,744
11/12/2018 8 AM EST 827.83 718.00 2,748
11/12/2018 9 AM EST 827.78 718.00 2,748
11/12/2018 10 AM EST 827.73 718.02 2,753
11/12/2018 11 AM EST 827.64 718.00 2,756
11/12/2018 12 PM EST 827.58 718.00 2,753
11/12/2018 1 PM EST 827.56 718.04 2,774
11/12/2018 2 PM EST 827.54 718.04 2,781
11/12/2018 3 PM EST 827.54 718.05 2,782
11/12/2018 4 PM EST 827.56 718.05 2,783
11/12/2018 5 PM EST 827.60 718.04 2,780
11/12/2018 6 PM EST 827.67 718.07 2,785
11/12/2018 7 PM EST 827.75 718.03 2,775
11/12/2018 8 PM EST 827.84 718.03 2,773
11/12/2018 9 PM EST 827.93 718.03 2,770
11/12/2018 10 PM EST 828.03 718.02 2,764
11/12/2018 11 PM EST 828.18 718.01 2,759
11/13/2018 12 AM EST 828.29 719.16 2,953
11/13/2018 1 AM EST 828.34 720.02 5,225
11/13/2018 2 AM EST 828.37 720.08 5,262
11/13/2018 3 AM EST 828.53 720.18 5,341
11/13/2018 4 AM EST 828.71 720.28 5,487
11/13/2018 5 AM EST 828.84 720.36 5,625
11/13/2018 6 AM EST 828.98 720.44 5,720
11/13/2018 7 AM EST 829.08 720.62 5,834
11/13/2018 8 AM EST 829.18 720.68 5,930
11/13/2018 9 AM EST 829.25 720.74 6,004
11/13/2018 10 AM EST 829.20 720.73 6,039

Elevations are in feet above sea level. Discharges are in cubic feet per second and are reported at the end of the hour.